createdAt,value
2022-09-23T00:02:02.023Z,1.33
2022-09-23T00:04:29.948Z,1.10
2022-09-23T00:06:56.252Z,1.30
2022-09-23T00:09:22.578Z,1.40
2022-09-23T00:11:48.890Z,1.33
2022-09-23T00:14:15.295Z,1.20
2022-09-23T00:16:41.644Z,1.20
2022-09-23T00:19:08.183Z,1.50
2022-09-23T00:21:34.516Z,1.23
2022-09-23T00:24:01.093Z,1.40
2022-09-23T00:26:27.802Z,1.50
2022-09-23T00:28:54.178Z,1.27
2022-09-23T00:31:23.399Z,1.40
2022-09-23T00:33:58.040Z,1.60
2022-09-23T00:36:25.115Z,1.30
2022-09-23T00:38:51.732Z,1.20
2022-09-23T00:41:18.217Z,1.60
2022-09-23T00:46:27.603Z,1.07
2022-09-23T00:49:09.049Z,1.23
2022-09-23T00:51:43.276Z,1.30
2022-09-23T00:54:10.640Z,1.20
2022-09-23T00:56:38.691Z,1.20
2022-09-23T00:59:06.730Z,1.30
2022-09-23T01:01:33.106Z,1.30
2022-09-23T01:03:59.458Z,1.37
2022-09-23T01:06:26.225Z,1.30
2022-09-23T01:08:52.593Z,1.03
2022-09-23T01:11:40.528Z,1.03
2022-09-23T01:14:34.306Z,1.37
2022-09-23T01:17:09.751Z,1.27
2022-09-23T01:20:08.512Z,1.10
2022-09-23T01:23:14.467Z,1.00
2022-09-23T01:26:03.824Z,1.13
2022-09-23T01:29:02.332Z,1.20
2022-09-23T01:31:48.966Z,1.20
2022-09-23T01:34:35.482Z,1.13
2022-09-23T01:37:11.986Z,1.30
2022-09-23T01:39:51.111Z,1.63
2022-09-23T01:42:29.428Z,1.40
2022-09-23T01:45:00.075Z,1.13
2022-09-23T01:47:30.875Z,1.27
2022-09-23T01:50:29.202Z,1.10
2022-09-23T01:53:01.716Z,1.33
2022-09-23T01:55:34.050Z,1.40
2022-09-23T01:58:15.614Z,1.30
2022-09-23T02:00:50.025Z,1.20
2022-09-23T02:03:27.250Z,1.30
2022-09-23T02:06:00.612Z,1.37
2022-09-23T02:08:35.778Z,1.10
2022-09-23T02:11:07.743Z,1.10
2022-09-23T02:13:52.215Z,1.00
2022-09-23T02:16:40.733Z,1.17
2022-09-23T02:19:11.479Z,1.00
2022-09-23T02:21:44.683Z,1.20
2022-09-23T02:24:14.955Z,1.17
2022-09-23T02:26:52.082Z,0.97
2022-09-23T02:29:27.796Z,1.57
2022-09-23T02:32:03.352Z,1.10
2022-09-23T02:34:35.835Z,1.17
2022-09-23T02:37:23.762Z,1.17
2022-09-23T02:40:00.398Z,1.33
2022-09-23T02:42:40.086Z,1.10
2022-09-23T02:45:06.679Z,1.20
2022-09-23T02:47:34.091Z,1.17
2022-09-23T02:50:01.699Z,1.13
2022-09-23T02:52:28.578Z,1.00
2022-09-23T02:54:54.924Z,1.30
2022-09-23T02:57:21.441Z,1.23
2022-09-23T02:59:47.768Z,1.20
2022-09-23T03:02:34.967Z,1.10
2022-09-23T03:05:23.740Z,1.33
2022-09-23T03:08:12.816Z,1.10
2022-09-23T03:10:55.598Z,1.13
2022-09-23T03:13:25.111Z,1.20
2022-09-23T03:16:02.129Z,1.13
2022-09-23T03:18:39.231Z,1.10
2022-09-23T03:21:19.189Z,1.00
2022-09-23T03:23:47.037Z,1.30
2022-09-23T03:26:19.250Z,1.20
2022-09-23T03:28:45.871Z,1.20
2022-09-23T03:31:13.261Z,1.20
2022-09-23T03:33:43.222Z,1.10
2022-09-23T03:36:29.547Z,1.13
2022-09-23T03:39:03.718Z,1.20
2022-09-23T03:41:38.704Z,1.20
2022-09-23T03:44:07.988Z,0.90
2022-09-23T03:46:35.395Z,1.10
2022-09-23T03:49:11.333Z,1.07
2022-09-23T03:51:41.476Z,1.10
2022-09-23T03:54:10.382Z,1.17
2022-09-23T03:56:37.469Z,1.27
2022-09-23T03:59:03.787Z,1.10
2022-09-23T04:01:30.078Z,1.20
2022-09-23T04:03:56.395Z,1.00
2022-09-23T04:06:22.756Z,1.50
2022-09-23T04:08:49.094Z,1.30
2022-09-23T04:11:15.425Z,1.07
2022-09-23T04:13:41.715Z,1.17
2022-09-23T04:16:08.109Z,1.13
2022-09-23T04:18:35.067Z,0.90
2022-09-23T04:21:01.417Z,1.20
2022-09-23T04:23:28.146Z,1.10
2022-09-23T04:25:54.774Z,1.33
2022-09-23T04:28:21.644Z,1.33
2022-09-23T04:30:48.936Z,1.40
2022-09-23T04:33:16.040Z,1.93
2022-09-23T04:35:45.231Z,1.83
2022-09-23T04:38:12.589Z,1.50
2022-09-23T04:40:39.061Z,1.57
2022-09-23T04:43:05.427Z,1.40
2022-09-23T04:45:31.747Z,1.50
2022-09-23T04:47:58.333Z,1.40
2022-09-23T04:50:25.988Z,1.50
2022-09-23T04:52:52.888Z,1.53
2022-09-23T04:55:19.737Z,1.10
2022-09-23T04:57:46.066Z,1.20
2022-09-23T05:00:15.059Z,1.53
2022-09-23T05:02:46.142Z,1.70
2022-09-23T05:05:13.500Z,1.40
2022-09-23T05:07:40.291Z,1.10
2022-09-23T05:10:07.377Z,1.17
2022-09-23T05:12:33.676Z,1.10
2022-09-23T05:15:00.448Z,1.03
2022-09-23T05:17:26.822Z,0.90
2022-09-23T05:19:53.132Z,1.10
2022-09-23T05:22:19.414Z,0.83
2022-09-23T05:24:46.006Z,0.90
2022-09-23T05:27:12.661Z,1.00
2022-09-23T05:29:39.062Z,0.90
2022-09-23T05:32:05.456Z,1.27
2022-09-23T05:34:32.214Z,1.20
2022-09-23T05:36:58.534Z,1.60
2022-09-23T05:39:24.859Z,1.43
2022-09-23T05:41:51.159Z,2.00
2022-09-23T05:44:17.470Z,1.77
2022-09-23T05:46:43.876Z,1.90
2022-09-23T05:49:10.435Z,2.37
2022-09-23T05:51:36.952Z,2.50
2022-09-23T05:54:04.621Z,2.40
2022-09-23T05:56:32.031Z,2.40
2022-09-23T05:59:00.294Z,2.53
2022-09-23T06:01:28.620Z,2.90
2022-09-23T06:03:56.378Z,2.40
2022-09-23T06:06:34.475Z,2.10
2022-09-23T06:09:01.251Z,2.13
2022-09-23T06:11:30.274Z,2.50
2022-09-23T06:14:00.865Z,2.50
2022-09-23T06:16:28.409Z,2.37
2022-09-23T06:18:54.755Z,2.00
2022-09-23T06:21:21.170Z,2.37
2022-09-23T06:23:47.615Z,1.70
2022-09-23T06:26:15.819Z,1.80
2022-09-23T06:28:43.548Z,1.83
2022-09-23T06:31:13.911Z,2.00
2022-09-23T06:33:41.892Z,1.80
2022-09-23T06:36:08.702Z,2.10
2022-09-23T06:38:37.977Z,2.00
2022-09-23T06:41:04.351Z,2.30
2022-09-23T06:43:30.690Z,1.90
2022-09-23T06:45:59.143Z,2.17
2022-09-23T06:48:26.253Z,2.00
2022-09-23T06:50:53.644Z,2.30
2022-09-23T06:53:23.996Z,1.73
2022-09-23T06:56:02.269Z,1.90
2022-09-23T06:58:29.334Z,2.40
2022-09-23T07:01:01.358Z,2.20
2022-09-23T07:03:27.966Z,3.60
2022-09-23T07:05:55.891Z,3.17
2022-09-23T07:08:23.587Z,3.27
2022-09-23T07:11:00.622Z,3.10
2022-09-23T07:13:28.316Z,3.27
2022-09-23T07:15:58.151Z,2.63
2022-09-23T07:18:26.488Z,2.13
2022-09-23T07:20:53.304Z,2.40
2022-09-23T07:23:19.614Z,2.47
2022-09-23T07:25:46.762Z,2.07
2022-09-23T07:28:13.195Z,2.23
2022-09-23T07:30:47.719Z,2.40
2022-09-23T07:33:28.906Z,2.17
2022-09-23T07:35:57.633Z,2.00
2022-09-23T07:38:26.478Z,2.30
2022-09-23T07:40:52.894Z,2.20
2022-09-23T07:43:19.236Z,2.23
2022-09-23T07:45:46.950Z,2.37
2022-09-23T07:48:13.807Z,1.73
2022-09-23T07:50:40.477Z,1.80
2022-09-23T07:53:08.510Z,1.90
2022-09-23T07:55:35.013Z,1.90
2022-09-23T07:58:01.309Z,2.10
2022-09-23T08:00:27.663Z,1.83
2022-09-23T08:02:54.019Z,2.00
2022-09-23T08:05:20.342Z,2.00
2022-09-23T08:07:48.415Z,1.50
2022-09-23T08:10:18.996Z,1.70
2022-09-23T08:12:46.340Z,2.03
2022-09-23T08:15:12.640Z,1.80
2022-09-23T08:17:39.036Z,2.22
2022-09-23T08:20:05.960Z,2.20
2022-09-23T08:22:32.702Z,1.90
2022-09-23T08:24:59.027Z,1.55
2022-09-23T08:27:27.482Z,1.88
2022-09-23T08:29:53.762Z,1.92
2022-09-23T08:32:20.080Z,2.17
2022-09-23T08:34:46.373Z,3.50
2022-09-23T08:37:12.729Z,2.63
2022-09-23T08:39:39.058Z,1.73
2022-09-23T08:42:18.798Z,3.08
2022-09-23T08:44:49.558Z,2.40
2022-09-23T08:47:16.985Z,2.95
2022-09-23T08:50:11.204Z,3.25
2022-09-23T08:52:51.882Z,2.40
2022-09-23T08:55:19.446Z,1.98
2022-09-23T08:58:26.229Z,2.28
2022-09-23T09:01:11.215Z,1.90
2022-09-23T09:03:46.401Z,1.80
2022-09-23T09:06:17.737Z,1.90
2022-09-23T09:08:45.787Z,1.45
2022-09-23T09:11:13.793Z,1.67
2022-09-23T09:13:59.465Z,1.60
2022-09-23T09:17:02.136Z,1.42
2022-09-23T09:19:52.518Z,1.80
2022-09-23T09:22:24.781Z,1.80
2022-09-23T09:24:53.258Z,1.98
2022-09-23T09:27:19.619Z,1.75
2022-09-23T09:29:50.086Z,1.70
2022-09-23T09:32:24.846Z,1.55
2022-09-23T09:34:56.010Z,1.70
2022-09-23T09:37:46.616Z,1.67
2022-09-23T09:40:15.027Z,1.63
2022-09-23T09:42:42.691Z,1.50
2022-09-23T09:45:19.810Z,1.52
2022-09-23T09:47:51.462Z,1.65
2022-09-23T09:50:51.970Z,1.75
2022-09-23T09:53:30.266Z,1.55
2022-09-23T09:56:08.324Z,1.77
2022-09-23T09:58:40.930Z,1.75
2022-09-23T10:01:08.075Z,1.48
2022-09-23T10:03:39.490Z,1.67
2022-09-23T10:06:21.027Z,1.50
2022-09-23T10:08:49.711Z,1.67
2022-09-23T10:11:17.874Z,1.70
2022-09-23T10:14:17.423Z,1.50
2022-09-23T10:16:44.872Z,1.40
2022-09-23T10:19:14.772Z,1.50
2022-09-23T10:21:42.171Z,1.40
2022-09-23T10:24:21.544Z,1.33
2022-09-23T10:27:01.224Z,1.60
2022-09-23T10:29:33.119Z,1.60
2022-09-23T10:32:22.320Z,1.10
2022-09-23T10:34:52.739Z,1.50
2022-09-23T10:37:27.553Z,1.55
2022-09-23T10:40:12.634Z,1.20
2022-09-23T10:43:19.311Z,1.50
2022-09-23T10:46:07.874Z,1.40
2022-09-23T10:49:02.119Z,1.60
2022-09-23T10:51:39.801Z,1.42
2022-09-23T10:54:20.438Z,1.45
2022-09-23T10:56:51.032Z,1.70
2022-09-23T10:59:48.881Z,1.50
2022-09-23T11:02:24.358Z,1.48
2022-09-23T11:05:16.318Z,1.65
2022-09-23T11:08:00.369Z,1.52
2022-09-23T11:11:11.495Z,1.60
2022-09-23T11:13:54.059Z,1.58
2022-09-23T11:16:47.622Z,1.38
2022-09-23T11:19:27.091Z,1.60
2022-09-23T11:22:37.331Z,1.33
2022-09-23T11:25:31.136Z,1.50
2022-09-23T11:28:17.533Z,1.38
2022-09-23T11:31:09.976Z,1.50
2022-09-23T11:33:42.085Z,1.50
2022-09-23T11:36:12.617Z,1.40
2022-09-23T11:38:43.182Z,1.42
2022-09-23T11:41:30.510Z,1.73
2022-09-23T11:44:13.673Z,1.45
2022-09-23T11:46:46.763Z,1.50
2022-09-23T11:49:30.730Z,1.80
2022-09-23T11:52:03.450Z,1.50
2022-09-23T11:54:53.020Z,1.55
2022-09-23T11:57:43.375Z,1.50
2022-09-23T12:00:18.893Z,1.40
2022-09-23T12:03:19.312Z,1.70
2022-09-23T12:05:48.470Z,1.35
2022-09-23T12:08:29.144Z,1.45
2022-09-23T12:11:08.451Z,1.40
2022-09-23T12:14:03.061Z,1.70
2022-09-23T12:16:57.032Z,1.40
2022-09-23T12:19:56.315Z,1.70
2022-09-23T12:22:41.262Z,1.35
2022-09-23T12:25:20.683Z,1.50
2022-09-23T12:27:50.160Z,1.75
2022-09-23T12:30:19.544Z,1.50
2022-09-23T12:32:46.309Z,1.70
2022-09-23T12:35:47.335Z,1.38
2022-09-23T12:38:20.073Z,1.40
2022-09-23T12:40:46.678Z,1.52
2022-09-23T12:43:30.188Z,2.17
2022-09-23T12:46:27.636Z,1.63
2022-09-23T12:49:00.468Z,1.60
2022-09-23T12:51:31.907Z,1.60
2022-09-23T12:54:01.440Z,1.30
2022-09-23T12:56:56.933Z,1.60
2022-09-23T12:59:28.606Z,1.35
2022-09-23T13:01:55.685Z,1.90
2022-09-23T13:05:01.311Z,1.90
2022-09-23T13:07:31.916Z,1.45
2022-09-23T13:10:06.243Z,1.50
2022-09-23T13:12:35.999Z,1.65
2022-09-23T13:15:06.167Z,2.03
2022-09-23T13:17:34.365Z,1.50
2022-09-23T13:20:20.853Z,1.30
2022-09-23T13:22:51.563Z,1.70
2022-09-23T13:25:28.830Z,1.90
2022-09-23T13:27:56.382Z,1.40
2022-09-23T13:30:26.644Z,1.67
2022-09-23T13:33:19.670Z,1.45
2022-09-23T13:35:50.655Z,1.65
2022-09-23T13:38:20.547Z,1.55
2022-09-23T13:40:47.299Z,1.70
2022-09-23T13:43:20.738Z,1.50
2022-09-23T13:45:47.342Z,1.40
2022-09-23T13:48:17.812Z,2.15
2022-09-23T13:50:49.076Z,1.55
2022-09-23T13:53:29.663Z,2.13
2022-09-23T13:56:05.544Z,1.67
2022-09-23T13:58:33.005Z,1.95
2022-09-23T14:00:59.714Z,1.60
2022-09-23T14:03:36.550Z,1.58
2022-09-23T14:06:11.411Z,1.60
2022-09-23T14:08:46.158Z,1.55
2022-09-23T14:11:17.291Z,1.63
2022-09-23T14:13:44.703Z,1.90
2022-09-23T14:16:14.619Z,1.60
2022-09-23T14:18:49.441Z,1.60
2022-09-23T14:21:38.231Z,1.55
2022-09-23T14:24:10.467Z,1.50
2022-09-23T14:26:37.855Z,1.60
2022-09-23T14:29:04.346Z,1.40
2022-09-23T14:31:32.737Z,1.50
2022-09-23T14:33:59.087Z,1.70
2022-09-23T14:36:44.007Z,1.98
2022-09-23T14:39:11.845Z,1.40
2022-09-23T14:41:40.784Z,1.52
2022-09-23T14:44:13.357Z,1.38
2022-09-23T14:46:40.059Z,1.20
2022-09-23T14:49:08.339Z,1.38
2022-09-23T14:51:50.144Z,1.40
2022-09-23T14:54:35.112Z,1.20
2022-09-23T14:57:05.805Z,1.30
2022-09-23T14:59:35.532Z,1.60
2022-09-23T15:02:02.739Z,1.50
2022-09-23T15:04:30.794Z,1.55
2022-09-23T15:07:00.800Z,1.40
2022-09-23T15:09:38.123Z,1.80
2022-09-23T15:12:07.189Z,1.40
2022-09-23T15:14:39.149Z,1.20
2022-09-23T15:17:15.769Z,1.40
2022-09-23T15:19:42.209Z,1.33
2022-09-23T15:22:09.084Z,1.35
2022-09-23T15:24:36.771Z,1.60
2022-09-23T15:27:10.462Z,1.50
2022-09-23T15:29:36.796Z,1.25
2022-09-23T15:32:03.158Z,1.30
2022-09-23T15:34:30.833Z,1.40
2022-09-23T15:36:57.162Z,1.13
2022-09-23T15:39:32.049Z,1.10
2022-09-23T15:42:02.505Z,1.10
2022-09-23T15:44:29.850Z,1.25
2022-09-23T15:46:59.031Z,1.40
2022-09-23T15:49:36.282Z,1.38
2022-09-23T15:52:04.166Z,1.27
2022-09-23T15:54:32.256Z,1.15
2022-09-23T15:56:58.576Z,1.60
2022-09-23T15:59:24.928Z,1.38
2022-09-23T16:01:52.283Z,1.50
2022-09-23T16:04:18.909Z,1.45
2022-09-23T16:06:47.927Z,1.13
2022-09-23T16:09:15.150Z,1.40
2022-09-23T16:11:49.139Z,1.40
2022-09-23T16:14:19.030Z,1.35
2022-09-23T16:16:47.585Z,1.65
2022-09-23T16:19:15.585Z,1.60
2022-09-23T16:21:41.912Z,1.30
2022-09-23T16:24:16.794Z,1.83
2022-09-23T16:26:44.211Z,1.35
2022-09-23T16:29:11.446Z,1.20
2022-09-23T16:31:38.532Z,1.15
2022-09-23T16:34:05.473Z,1.55
2022-09-23T16:36:38.241Z,1.25
2022-09-23T16:39:06.375Z,1.38
2022-09-23T16:41:33.003Z,1.35
2022-09-23T16:44:00.826Z,1.50
2022-09-23T16:46:29.080Z,1.30
2022-09-23T16:48:57.478Z,1.30
2022-09-23T16:51:29.339Z,1.25
2022-09-23T16:53:57.546Z,1.08
2022-09-23T16:56:28.639Z,1.33
2022-09-23T16:58:55.714Z,1.52
2022-09-23T17:01:45.622Z,1.13
2022-09-23T17:04:12.857Z,1.33
2022-09-23T17:06:43.531Z,1.20
2022-09-23T17:09:11.091Z,1.50
2022-09-23T17:11:38.051Z,1.40
2022-09-23T17:14:05.456Z,1.50
2022-09-23T17:16:33.506Z,1.40
2022-09-23T17:19:06.212Z,1.52
2022-09-23T17:21:32.659Z,1.65
2022-09-23T17:23:58.973Z,1.60
2022-09-23T17:26:26.436Z,1.13
2022-09-23T17:28:54.251Z,1.70
2022-09-23T17:31:24.580Z,1.35
2022-09-23T17:33:51.924Z,1.27
2022-09-23T17:36:19.077Z,1.30
2022-09-23T17:38:46.314Z,1.20
2022-09-23T17:41:14.154Z,1.35
2022-09-23T17:43:40.524Z,1.70
2022-09-23T17:46:09.851Z,1.50
2022-09-23T17:48:38.304Z,1.42
2022-09-23T17:51:07.390Z,1.50
2022-09-23T17:53:35.669Z,2.45
2022-09-23T17:56:04.475Z,2.25
2022-09-23T17:58:33.452Z,1.20
2022-09-23T18:01:00.072Z,1.40
2022-09-23T18:03:28.440Z,1.63
2022-09-23T18:05:55.293Z,1.23
2022-09-23T18:08:21.599Z,1.30
2022-09-23T18:10:47.887Z,1.20
2022-09-23T18:13:14.195Z,1.13
2022-09-23T18:15:40.622Z,1.13
2022-09-23T18:18:07.229Z,1.10
2022-09-23T18:20:33.892Z,1.30
2022-09-23T18:23:00.200Z,1.42
2022-09-23T18:25:39.196Z,1.35
2022-09-23T18:28:06.119Z,1.60
2022-09-23T18:30:33.423Z,1.38
2022-09-23T18:32:59.862Z,1.20
2022-09-23T18:35:26.387Z,1.65
2022-09-23T18:37:52.683Z,1.40
2022-09-23T18:40:19.136Z,1.10
2022-09-23T18:42:45.533Z,1.20
2022-09-23T18:45:11.983Z,1.70
2022-09-23T18:47:57.001Z,1.88
2022-09-23T18:50:55.777Z,1.23
2022-09-23T18:53:22.218Z,1.20
2022-09-23T18:55:48.510Z,1.20
2022-09-23T18:58:14.817Z,1.27
2022-09-23T19:00:41.649Z,1.30
2022-09-23T19:03:08.053Z,1.30
2022-09-23T19:05:34.414Z,1.40
2022-09-23T19:08:01.036Z,1.50
2022-09-23T19:10:27.586Z,1.65
2022-09-23T19:12:53.877Z,1.88
2022-09-23T19:15:20.390Z,1.70
2022-09-23T19:17:46.699Z,1.30
2022-09-23T19:20:12.990Z,1.30
2022-09-23T19:22:39.779Z,1.90
2022-09-23T19:25:07.537Z,1.80
2022-09-23T19:27:35.707Z,1.67
2022-09-23T19:30:02.212Z,1.45
2022-09-23T19:32:28.518Z,2.17
2022-09-23T19:34:55.004Z,2.35
2022-09-23T19:37:21.431Z,2.40
2022-09-23T19:39:48.070Z,1.25
2022-09-23T19:42:14.406Z,1.67
2022-09-23T19:44:40.877Z,1.40
2022-09-23T19:47:07.217Z,1.40
2022-09-23T19:49:33.547Z,1.20
2022-09-23T19:52:00.230Z,1.00
2022-09-23T19:54:27.241Z,1.83
2022-09-23T19:56:53.831Z,1.58
2022-09-23T19:59:20.157Z,1.50
2022-09-23T20:01:48.011Z,1.77
2022-09-23T20:04:15.532Z,2.00
2022-09-23T20:06:41.845Z,1.85
2022-09-23T20:09:08.217Z,1.35
2022-09-23T20:11:35.012Z,1.52
2022-09-23T20:14:04.316Z,2.17
2022-09-23T20:16:32.879Z,2.25
2022-09-23T20:19:00.596Z,2.08
2022-09-23T20:21:28.977Z,2.30
2022-09-23T20:23:55.893Z,1.50
2022-09-23T20:26:40.758Z,2.20
2022-09-23T20:29:08.710Z,1.98
2022-09-23T20:31:35.267Z,1.40
2022-09-23T20:34:05.316Z,1.60
2022-09-23T20:36:32.619Z,1.45
2022-09-23T20:39:00.486Z,1.30
2022-09-23T20:41:28.131Z,1.20
2022-09-23T20:43:55.458Z,1.88
2022-09-23T20:46:24.453Z,1.57
2022-09-23T20:48:50.848Z,1.60
2022-09-23T20:51:17.708Z,2.10
2022-09-23T20:53:44.395Z,1.38
2022-09-23T20:56:10.704Z,1.75
2022-09-23T20:58:37.143Z,2.97
2022-09-23T21:01:06.365Z,2.80
2022-09-23T21:03:32.938Z,2.40
2022-09-23T21:06:01.104Z,1.90
2022-09-23T21:08:27.411Z,2.22
2022-09-23T21:10:57.656Z,2.35
2022-09-23T21:13:24.415Z,1.40
2022-09-23T21:15:50.976Z,2.00
2022-09-23T21:18:22.245Z,1.98
2022-09-23T21:20:56.091Z,2.70
2022-09-23T21:23:27.086Z,2.40
2022-09-23T21:26:09.227Z,2.37
2022-09-23T21:28:37.611Z,2.30
2022-09-23T21:31:07.878Z,1.20
2022-09-23T21:33:36.537Z,2.42
2022-09-23T21:36:04.790Z,2.63
2022-09-23T21:38:34.172Z,2.20
2022-09-23T21:41:01.467Z,3.15
2022-09-23T21:43:31.538Z,2.40
2022-09-23T21:45:59.716Z,2.10
2022-09-23T21:48:27.819Z,2.47
2022-09-23T21:51:03.751Z,1.55
2022-09-23T21:53:31.547Z,1.90
2022-09-23T21:56:21.027Z,1.70
2022-09-23T21:58:47.977Z,2.10
2022-09-23T22:01:16.998Z,2.13
2022-09-23T22:03:44.542Z,1.90
2022-09-23T22:06:12.830Z,1.50
2022-09-23T22:08:41.729Z,1.90
2022-09-23T22:11:29.390Z,2.70
2022-09-23T22:13:56.612Z,2.53
2022-09-23T22:16:23.636Z,2.60
2022-09-23T22:18:51.895Z,2.50
2022-09-23T22:21:20.015Z,1.80
2022-09-23T22:23:46.702Z,1.87
2022-09-23T22:26:13.028Z,1.53
2022-09-23T22:28:57.911Z,2.40
2022-09-23T22:31:42.688Z,1.80
2022-09-23T22:34:20.360Z,2.60
2022-09-23T22:36:56.667Z,2.23
2022-09-23T22:39:24.838Z,1.33
2022-09-23T22:41:51.538Z,2.30
2022-09-23T22:44:18.498Z,1.53
2022-09-23T22:46:46.079Z,1.33
2022-09-23T22:49:12.704Z,2.43
2022-09-23T22:51:40.414Z,2.10
2022-09-23T22:54:07.176Z,2.10
2022-09-23T22:56:33.537Z,1.57
2022-09-23T22:59:07.449Z,2.10
2022-09-23T23:01:34.658Z,1.90
2022-09-23T23:04:01.758Z,2.87
2022-09-23T23:06:35.992Z,2.40
2022-09-23T23:09:06.687Z,1.73
2022-09-23T23:11:32.987Z,2.77
2022-09-23T23:14:01.330Z,2.53
2022-09-23T23:16:29.381Z,2.30
2022-09-23T23:18:56.122Z,1.33
2022-09-23T23:21:22.745Z,2.50
2022-09-23T23:23:51.238Z,2.70
2022-09-23T23:26:25.832Z,1.80
2022-09-23T23:28:53.288Z,2.00
2022-09-23T23:31:21.331Z,2.80
2022-09-23T23:33:47.719Z,3.10
2022-09-23T23:36:16.052Z,2.40
2022-09-23T23:38:44.646Z,2.77
2022-09-23T23:41:13.909Z,2.87
2022-09-23T23:43:41.682Z,2.30
2022-09-23T23:46:07.990Z,2.33
2022-09-23T23:48:35.815Z,2.57
2022-09-23T23:51:03.303Z,2.63
2022-09-23T23:53:34.014Z,2.37
2022-09-23T23:56:05.851Z,2.63
2022-09-23T23:58:32.382Z,2.20
